TimeEST,TemperatureF,Dew PointF,Humidity,Sea Level PressureIn,VisibilityMPH,Wind Direction,Wind SpeedMPH,Gust SpeedMPH,PrecipitationIn,Events,Conditions,WindDirDegrees,DateUTC
12:51 AM,48.0,34.0,58,30.11,10.0,West,8.1,-,N/A,,Clear,260,2012-11-26 05:51:00
1:51 AM,46.0,36.0,68,30.12,10.0,West,5.8,-,N/A,,Clear,260,2012-11-26 06:51:00
2:51 AM,46.9,36.0,66,30.13,10.0,West,5.8,-,N/A,,Clear,270,2012-11-26 07:51:00
3:51 AM,46.0,37.0,71,30.13,10.0,West,5.8,-,N/A,,Clear,270,2012-11-26 08:51:00
4:51 AM,45.0,37.0,74,30.14,10.0,West,5.8,-,N/A,,Clear,260,2012-11-26 09:51:00
5:51 AM,46.0,39.0,76,30.16,10.0,West,5.8,-,N/A,,Clear,260,2012-11-26 10:51:00
6:51 AM,46.9,39.9,77,30.17,10.0,West,4.6,-,N/A,,Clear,260,2012-11-26 11:51:00
7:51 AM,50.0,42.1,74,30.19,10.0,West,5.8,-,N/A,,Clear,260,2012-11-26 12:51:00
8:51 AM,53.1,43.0,69,30.20,10.0,West,6.9,-,N/A,,Clear,280,2012-11-26 13:51:00
9:51 AM,54.0,43.0,66,30.22,10.0,West,8.1,-,N/A,,Clear,280,2012-11-26 14:51:00
10:51 AM,55.9,43.0,62,30.22,10.0,WNW,8.1,-,N/A,,Clear,290,2012-11-26 15:51:00
11:51 AM,55.9,42.1,60,30.20,10.0,West,6.9,-,N/A,,Clear,270,2012-11-26 16:51:00
12:51 PM,57.9,35.1,42,30.18,10.0,Variable,4.6,-,N/A,,Clear,0,2012-11-26 17:51:00
1:51 PM,57.0,39.9,53,30.17,10.0,WSW,6.9,-,N/A,,Clear,240,2012-11-26 18:51:00
2:51 PM,55.9,44.1,64,30.17,10.0,SW,8.1,-,N/A,,Clear,220,2012-11-26 19:51:00
3:51 PM,55.9,43.0,62,30.18,10.0,SW,4.6,-,N/A,,Clear,230,2012-11-26 20:51:00
4:51 PM,54.0,44.1,69,30.19,10.0,WSW,4.6,-,N/A,,Clear,240,2012-11-26 21:51:00
5:51 PM,45.0,42.1,90,30.20,10.0,North,3.5,-,N/A,,Clear,10,2012-11-26 22:51:00
6:51 PM,42.1,39.0,89,30.22,10.0,Calm,Calm,-,N/A,,Clear,0,2012-11-26 23:51:00
7:51 PM,41.0,37.9,89,30.22,10.0,Calm,Calm,-,N/A,,Clear,0,2012-11-27 00:51:00
8:51 PM,39.0,36.0,89,30.23,10.0,Calm,Calm,-,N/A,,Clear,0,2012-11-27 01:51:00
9:51 PM,37.9,36.0,93,30.23,10.0,Calm,Calm,-,N/A,,Clear,0,2012-11-27 02:51:00
10:51 PM,37.9,35.1,89,30.23,10.0,East,3.5,-,N/A,,Clear,90,2012-11-27 03:51:00
11:51 PM,37.0,34.0,89,30.23,10.0,ESE,4.6,-,N/A,,Clear,110,2012-11-27 04:51:00